Terminal Aerodrome Forecast
Issued by NWS Cleveland, OH

Home | Current Version | Previous Version | Graphics & Text | Print | Product List | Glossary On
Versions: 1 2 3 4 5 6 7 8 9 10 11 12 13 14 15 16 17 18 19 20 21 22 23 24 25 26 27
000
FTUS41 KCLE 251237 AAA
TAFCLE
TAF AMD
KCLE 251237Z 2513/2618 24006KT P6SM OVC008
     FM251500 23011KT P6SM SCT008 BKN012
     FM251800 20012G18KT P6SM SCT012 BKN035
     FM252200 24012KT P6SM VCSH BKN045
      TEMPO 2522/2602 4SM -TSRA BR OVC025CB
     FM260200 24008KT P6SM SCT025 BKN080
      TEMPO 2609/2613 4SM BR
     FM261500 32006KT P6SM SCT250=

USA.gov is the U.S. government's official web portal to all federal, state and local government web resources and services.